sensor_id;sensor_type;location;lat;lon;timestamp;pressure;altitude;pressure_sealevel;temperature;humidity
70248;BME280;57641;51.416;5.506;2023-07-24T00:00:19;100594.97;;;22.94;66.67
70248;BME280;57641;51.416;5.506;2023-07-24T00:02:45;100607.75;;;22.93;66.58
70248;BME280;57641;51.416;5.506;2023-07-24T00:05:11;100600.66;;;22.92;66.61
70248;BME280;57641;51.416;5.506;2023-07-24T00:07:37;100592.00;;;22.95;66.62
70248;BME280;57641;51.416;5.506;2023-07-24T00:10:03;100592.59;;;22.97;66.41
70248;BME280;57641;51.416;5.506;2023-07-24T00:12:29;100593.19;;;22.99;66.50
70248;BME280;57641;51.416;5.506;2023-07-24T00:14:55;100599.47;;;23.00;66.28
70248;BME280;57641;51.416;5.506;2023-07-24T00:17:20;100581.22;;;23.00;66.12
70248;BME280;57641;51.416;5.506;2023-07-24T00:19:46;100571.78;;;23.03;66.03
70248;BME280;57641;51.416;5.506;2023-07-24T00:22:12;100578.16;;;22.97;65.80
70248;BME280;57641;51.416;5.506;2023-07-24T00:24:38;100575.00;;;23.00;66.03
70248;BME280;57641;51.416;5.506;2023-07-24T00:27:04;100570.34;;;23.00;65.98
70248;BME280;57641;51.416;5.506;2023-07-24T00:29:29;100566.84;;;23.00;66.25
70248;BME280;57641;51.416;5.506;2023-07-24T00:31:55;100567.41;;;23.02;65.99
70248;BME280;57641;51.416;5.506;2023-07-24T00:34:20;100557.13;;;23.04;66.17
70248;BME280;57641;51.416;5.506;2023-07-24T00:36:46;100553.91;;;23.07;65.85
70248;BME280;57641;51.416;5.506;2023-07-24T00:39:14;100548.97;;;23.04;65.94
70248;BME280;57641;51.416;5.506;2023-07-24T00:41:39;100551.19;;;23.07;65.70
70248;BME280;57641;51.416;5.506;2023-07-24T00:44:05;100553.06;;;23.06;65.71
70248;BME280;57641;51.416;5.506;2023-07-24T00:46:32;100545.50;;;23.08;65.95
70248;BME280;57641;51.416;5.506;2023-07-24T00:49:00;100546.34;;;23.09;65.81
70248;BME280;57641;51.416;5.506;2023-07-24T00:51:26;100542.78;;;23.08;65.95
70248;BME280;57641;51.416;5.506;2023-07-24T00:53:55;100545.28;;;23.10;65.71
70248;BME280;57641;51.416;5.506;2023-07-24T00:56:22;100548.81;;;23.10;65.88
70248;BME280;57641;51.416;5.506;2023-07-24T00:58:48;100545.00;;;23.11;65.82
70248;BME280;57641;51.416;5.506;2023-07-24T01:01:16;100543.72;;;23.14;65.71
70248;BME280;57641;51.416;5.506;2023-07-24T01:03:42;100536.63;;;23.13;65.90
70248;BME280;57641;51.416;5.506;2023-07-24T01:06:09;100540.22;;;23.02;66.19
70248;BME280;57641;51.416;5.506;2023-07-24T01:08:35;100539.00;;;23.09;66.10
70248;BME280;57641;51.416;5.506;2023-07-24T01:11:09;100540.31;;;23.07;65.92
70248;BME280;57641;51.416;5.506;2023-07-24T01:13:42;100539.63;;;23.00;66.49
70248;BME280;57641;51.416;5.506;2023-07-24T01:16:14;100528.59;;;23.06;66.28
70248;BME280;57641;51.416;5.506;2023-07-24T01:18:41;100501.56;;;23.00;66.41
70248;BME280;57641;51.416;5.506;2023-07-24T01:21:09;100500.56;;;23.06;66.55
70248;BME280;57641;51.416;5.506;2023-07-24T01:23:58;100497.19;;;22.99;66.91
70248;BME280;57641;51.416;5.506;2023-07-24T01:26:25;100502.53;;;22.94;67.15
70248;BME280;57641;51.416;5.506;2023-07-24T01:28:52;100496.94;;;23.00;66.92
70248;BME280;57641;51.416;5.506;2023-07-24T01:31:17;100504.16;;;22.95;66.91
70248;BME280;57641;51.416;5.506;2023-07-24T01:33:44;100500.00;;;23.04;67.09
70248;BME280;57641;51.416;5.506;2023-07-24T01:36:10;100490.06;;;23.09;66.86
70248;BME280;57641;51.416;5.506;2023-07-24T01:38:36;100487.06;;;23.11;66.44
70248;BME280;57641;51.416;5.506;2023-07-24T01:41:05;100483.28;;;23.12;66.58
70248;BME280;57641;51.416;5.506;2023-07-24T01:43:30;100483.38;;;23.17;66.39
70248;BME280;57641;51.416;5.506;2023-07-24T01:45:58;100475.22;;;23.17;66.24
70248;BME280;57641;51.416;5.506;2023-07-24T01:48:24;100473.00;;;23.14;66.24
70248;BME280;57641;51.416;5.506;2023-07-24T01:50:49;100477.38;;;23.15;66.27
70248;BME280;57641;51.416;5.506;2023-07-24T01:53:15;100473.00;;;23.14;66.17
70248;BME280;57641;51.416;5.506;2023-07-24T01:55:41;100478.69;;;23.12;66.22
70248;BME280;57641;51.416;5.506;2023-07-24T01:58:07;100470.84;;;23.16;66.21
70248;BME280;57641;51.416;5.506;2023-07-24T02:00:32;100471.44;;;23.18;65.90
70248;BME280;57641;51.416;5.506;2023-07-24T02:02:58;100484.94;;;23.13;65.84
70248;BME280;57641;51.416;5.506;2023-07-24T02:05:23;100470.75;;;23.11;66.19
70248;BME280;57641;51.416;5.506;2023-07-24T02:07:49;100458.06;;;23.16;66.24
70248;BME280;57641;51.416;5.506;2023-07-24T02:10:14;100458.34;;;23.15;66.14
70248;BME280;57641;51.416;5.506;2023-07-24T02:12:40;100459.50;;;23.19;66.23
70248;BME280;57641;51.416;5.506;2023-07-24T02:15:06;100455.13;;;23.18;66.15
70248;BME280;57641;51.416;5.506;2023-07-24T02:17:31;100455.94;;;23.19;66.42
70248;BME280;57641;51.416;5.506;2023-07-24T02:19:57;100446.47;;;23.21;66.20
70248;BME280;57641;51.416;5.506;2023-07-24T02:22:24;100447.03;;;23.23;66.19
70248;BME280;57641;51.416;5.506;2023-07-24T02:24:50;100457.50;;;23.14;65.86
70248;BME280;57641;51.416;5.506;2023-07-24T02:27:26;100452.06;;;23.14;66.21
70248;BME280;57641;51.416;5.506;2023-07-24T02:29:52;100444.38;;;23.11;66.35
70248;BME280;57641;51.416;5.506;2023-07-24T02:32:18;100435.41;;;23.11;66.39
70248;BME280;57641;51.416;5.506;2023-07-24T02:34:47;100432.44;;;23.12;66.52
70248;BME280;57641;51.416;5.506;2023-07-24T02:37:12;100422.72;;;23.16;66.35
70248;BME280;57641;51.416;5.506;2023-07-24T02:39:37;100431.69;;;23.17;65.99
70248;BME280;57641;51.416;5.506;2023-07-24T02:42:03;100429.81;;;23.17;66.26
70248;BME280;57641;51.416;5.506;2023-07-24T02:44:29;100428.97;;;23.17;66.32
70248;BME280;57641;51.416;5.506;2023-07-24T02:46:54;100431.69;;;23.17;66.16
70248;BME280;57641;51.416;5.506;2023-07-24T02:49:20;100444.75;;;23.15;66.06
70248;BME280;57641;51.416;5.506;2023-07-24T02:51:45;100461.94;;;23.04;66.26
70248;BME280;57641;51.416;5.506;2023-07-24T02:54:11;100462.22;;;22.91;67.02
70248;BME280;57641;51.416;5.506;2023-07-24T02:56:36;100460.84;;;22.88;66.80
70248;BME280;57641;51.416;5.506;2023-07-24T02:59:02;100451.84;;;22.88;67.40
70248;BME280;57641;51.416;5.506;2023-07-24T03:01:27;100435.13;;;22.96;66.55
70248;BME280;57641;51.416;5.506;2023-07-24T03:03:53;100453.88;;;22.81;67.18
70248;BME280;57641;51.416;5.506;2023-07-24T03:06:18;100446.06;;;22.84;66.50
70248;BME280;57641;51.416;5.506;2023-07-24T03:08:43;100443.59;;;22.83;66.22
70248;BME280;57641;51.416;5.506;2023-07-24T03:11:09;100442.47;;;22.67;67.13
70248;BME280;57641;51.416;5.506;2023-07-24T03:13:35;100439.13;;;22.77;66.33
70248;BME280;57641;51.416;5.506;2023-07-24T03:16:01;100434.59;;;22.42;67.52
70248;BME280;57641;51.416;5.506;2023-07-24T03:18:26;100430.72;;;22.38;67.25
70248;BME280;57641;51.416;5.506;2023-07-24T03:20:52;100425.59;;;22.53;66.12
70248;BME280;57641;51.416;5.506;2023-07-24T03:23:18;100420.34;;;22.63;66.42
70248;BME280;57641;51.416;5.506;2023-07-24T03:25:45;100435.13;;;22.67;66.36
70248;BME280;57641;51.416;5.506;2023-07-24T03:28:11;100422.28;;;22.63;66.13
70248;BME280;57641;51.416;5.506;2023-07-24T03:30:36;100419.78;;;22.73;66.17
70248;BME280;57641;51.416;5.506;2023-07-24T03:33:02;100413.75;;;22.71;65.76
70248;BME280;57641;51.416;5.506;2023-07-24T03:35:27;100416.34;;;22.66;65.79
70248;BME280;57641;51.416;5.506;2023-07-24T03:37:53;100416.56;;;22.64;65.85
70248;BME280;57641;51.416;5.506;2023-07-24T03:40:18;100410.91;;;22.66;65.92
70248;BME280;57641;51.416;5.506;2023-07-24T03:42:44;100407.59;;;22.64;65.06
70248;BME280;57641;51.416;5.506;2023-07-24T03:45:09;100414.59;;;22.60;65.15
70248;BME280;57641;51.416;5.506;2023-07-24T03:47:35;100407.50;;;22.59;65.22
70248;BME280;57641;51.416;5.506;2023-07-24T03:50:00;100417.63;;;22.63;65.57
70248;BME280;57641;51.416;5.506;2023-07-24T03:52:26;100409.97;;;22.60;65.59
70248;BME280;57641;51.416;5.506;2023-07-24T03:54:52;100411.97;;;22.65;65.41
70248;BME280;57641;51.416;5.506;2023-07-24T03:57:18;100418.56;;;22.69;65.34
70248;BME280;57641;51.416;5.506;2023-07-24T03:59:43;100418.22;;;22.65;65.46
70248;BME280;57641;51.416;5.506;2023-07-24T04:02:09;100416.34;;;22.66;65.34
70248;BME280;57641;51.416;5.506;2023-07-24T04:04:35;100408.53;;;22.69;65.29
70248;BME280;57641;51.416;5.506;2023-07-24T04:07:00;100415.50;;;22.65;64.98
70248;BME280;57641;51.416;5.506;2023-07-24T04:09:26;100418.13;;;22.60;64.66
70248;BME280;57641;51.416;5.506;2023-07-24T04:11:51;100422.16;;;22.58;64.94
70248;BME280;57641;51.416;5.506;2023-07-24T04:14:17;100429.84;;;22.61;64.97
70248;BME280;57641;51.416;5.506;2023-07-24T04:16:43;100442.59;;;22.60;64.73
70248;BME280;57641;51.416;5.506;2023-07-24T04:19:08;100452.44;;;22.50;64.76
70248;BME280;57641;51.416;5.506;2023-07-24T04:21:34;100450.06;;;22.53;64.83
70248;BME280;57641;51.416;5.506;2023-07-24T04:23:59;100467.19;;;22.42;65.31
70248;BME280;57641;51.416;5.506;2023-07-24T04:26:25;100450.09;;;22.42;64.63
70248;BME280;57641;51.416;5.506;2023-07-24T04:28:50;100433.09;;;22.46;64.99
70248;BME280;57641;51.416;5.506;2023-07-24T04:31:15;100431.56;;;22.39;64.88
70248;BME280;57641;51.416;5.506;2023-07-24T04:33:41;100433.03;;;22.18;65.05
70248;BME280;57641;51.416;5.506;2023-07-24T04:36:06;100442.00;;;22.18;64.87
70248;BME280;57641;51.416;5.506;2023-07-24T04:38:32;100462.91;;;22.06;65.25
70248;BME280;57641;51.416;5.506;2023-07-24T04:41:00;100455.97;;;21.99;65.22
70248;BME280;57641;51.416;5.506;2023-07-24T04:43:26;100464.09;;;21.99;65.18
70248;BME280;57641;51.416;5.506;2023-07-24T04:45:51;100464.81;;;21.94;65.30
70248;BME280;57641;51.416;5.506;2023-07-24T04:48:17;100447.06;;;21.80;66.09
70248;BME280;57641;51.416;5.506;2023-07-24T04:50:42;100438.59;;;21.88;65.30
70248;BME280;57641;51.416;5.506;2023-07-24T04:53:08;100434.34;;;21.69;65.58
70248;BME280;57641;51.416;5.506;2023-07-24T04:55:34;100429.25;;;21.37;66.47
70248;BME280;57641;51.416;5.506;2023-07-24T04:58:01;100416.41;;;21.79;65.01
70248;BME280;57641;51.416;5.506;2023-07-24T05:00:26;100415.00;;;21.77;65.20
70248;BME280;57641;51.416;5.506;2023-07-24T05:02:52;100431.50;;;21.64;65.60
70248;BME280;57641;51.416;5.506;2023-07-24T05:05:17;100438.72;;;21.81;65.83
70248;BME280;57641;51.416;5.506;2023-07-24T05:07:43;100437.66;;;21.82;65.65
70248;BME280;57641;51.416;5.506;2023-07-24T05:10:09;100445.19;;;21.92;64.97
70248;BME280;57641;51.416;5.506;2023-07-24T05:12:35;100438.34;;;21.89;64.62
70248;BME280;57641;51.416;5.506;2023-07-24T05:15:00;100446.16;;;21.98;64.43
70248;BME280;57641;51.416;5.506;2023-07-24T05:17:25;100440.41;;;21.94;64.16
70248;BME280;57641;51.416;5.506;2023-07-24T05:19:51;100434.00;;;22.00;64.48
70248;BME280;57641;51.416;5.506;2023-07-24T05:22:16;100448.72;;;21.92;64.86
70248;BME280;57641;51.416;5.506;2023-07-24T05:24:42;100456.16;;;21.85;64.54
70248;BME280;57641;51.416;5.506;2023-07-24T05:27:07;100453.47;;;21.97;64.85
70248;BME280;57641;51.416;5.506;2023-07-24T05:29:33;100456.78;;;21.99;64.76
70248;BME280;57641;51.416;5.506;2023-07-24T05:31:58;100459.63;;;22.04;64.84
70248;BME280;57641;51.416;5.506;2023-07-24T05:34:24;100466.09;;;22.03;64.87
70248;BME280;57641;51.416;5.506;2023-07-24T05:36:50;100466.56;;;22.00;65.47
70248;BME280;57641;51.416;5.506;2023-07-24T05:39:16;100474.13;;;21.98;65.52
70248;BME280;57641;51.416;5.506;2023-07-24T05:41:41;100475.66;;;21.82;64.97
70248;BME280;57641;51.416;5.506;2023-07-24T05:44:07;100475.06;;;21.92;65.28
70248;BME280;57641;51.416;5.506;2023-07-24T05:46:32;100463.97;;;21.94;65.46
70248;BME280;57641;51.416;5.506;2023-07-24T05:48:57;100474.00;;;21.93;65.82
70248;BME280;57641;51.416;5.506;2023-07-24T05:51:25;100479.19;;;22.06;65.61
70248;BME280;57641;51.416;5.506;2023-07-24T05:53:50;100483.78;;;22.06;65.92
70248;BME280;57641;51.416;5.506;2023-07-24T05:56:16;100477.41;;;21.88;65.87
70248;BME280;57641;51.416;5.506;2023-07-24T05:58:41;100483.78;;;22.06;65.66
70248;BME280;57641;51.416;5.506;2023-07-24T06:01:06;100479.56;;;22.10;65.65
70248;BME280;57641;51.416;5.506;2023-07-24T06:03:35;100478.13;;;22.19;66.12
70248;BME280;57641;51.416;5.506;2023-07-24T06:06:00;100473.66;;;22.13;66.52
70248;BME280;57641;51.416;5.506;2023-07-24T06:08:26;100474.81;;;22.17;66.51
70248;BME280;57641;51.416;5.506;2023-07-24T06:10:52;100466.44;;;22.30;66.25
70248;BME280;57641;51.416;5.506;2023-07-24T06:13:18;100465.09;;;22.32;66.22
70248;BME280;57641;51.416;5.506;2023-07-24T06:15:44;100464.56;;;22.19;66.28
70248;BME280;57641;51.416;5.506;2023-07-24T06:18:11;100467.97;;;22.26;66.29
70248;BME280;57641;51.416;5.506;2023-07-24T06:20:37;100463.91;;;22.40;66.35
70248;BME280;57641;51.416;5.506;2023-07-24T06:23:02;100468.94;;;22.08;66.28
70248;BME280;57641;51.416;5.506;2023-07-24T06:25:30;100480.25;;;22.28;66.24
70248;BME280;57641;51.416;5.506;2023-07-24T06:27:56;100481.56;;;22.14;66.08
70248;BME280;57641;51.416;5.506;2023-07-24T06:30:21;100481.06;;;22.29;66.33
70248;BME280;57641;51.416;5.506;2023-07-24T06:32:47;100470.53;;;22.44;65.90
70248;BME280;57641;51.416;5.506;2023-07-24T06:35:13;100472.88;;;22.52;65.07
70248;BME280;57641;51.416;5.506;2023-07-24T06:37:38;100476.44;;;22.41;65.80
70248;BME280;57641;51.416;5.506;2023-07-24T06:40:05;100478.31;;;22.52;65.68
70248;BME280;57641;51.416;5.506;2023-07-24T06:42:31;100476.66;;;22.51;65.75
70248;BME280;57641;51.416;5.506;2023-07-24T06:44:56;100478.41;;;22.57;66.00
70248;BME280;57641;51.416;5.506;2023-07-24T06:47:22;100480.50;;;22.67;66.04
70248;BME280;57641;51.416;5.506;2023-07-24T06:49:47;100483.94;;;22.62;65.70
70248;BME280;57641;51.416;5.506;2023-07-24T06:52:12;100484.50;;;22.64;66.00
70248;BME280;57641;51.416;5.506;2023-07-24T06:54:38;100487.72;;;22.61;65.50
70248;BME280;57641;51.416;5.506;2023-07-24T06:57:03;100482.41;;;22.55;64.33
70248;BME280;57641;51.416;5.506;2023-07-24T06:59:29;100486.06;;;22.60;65.07
70248;BME280;57641;51.416;5.506;2023-07-24T07:01:54;100482.53;;;22.60;65.18
70248;BME280;57641;51.416;5.506;2023-07-24T07:04:20;100485.72;;;22.57;65.22
70248;BME280;57641;51.416;5.506;2023-07-24T07:06:45;100485.09;;;22.66;65.60
70248;BME280;57641;51.416;5.506;2023-07-24T07:09:11;100484.19;;;22.72;65.23
70248;BME280;57641;51.416;5.506;2023-07-24T07:11:37;100477.69;;;22.73;65.34
70248;BME280;57641;51.416;5.506;2023-07-24T07:14:02;100483.56;;;22.70;64.96
70248;BME280;57641;51.416;5.506;2023-07-24T07:16:28;100473.88;;;22.74;64.91
70248;BME280;57641;51.416;5.506;2023-07-24T07:18:53;100475.97;;;22.84;63.68
70248;BME280;57641;51.416;5.506;2023-07-24T07:21:19;100476.59;;;22.74;63.80
70248;BME280;57641;51.416;5.506;2023-07-24T07:23:44;100471.69;;;22.48;63.22
70248;BME280;57641;51.416;5.506;2023-07-24T07:26:09;100476.25;;;22.59;64.33
70248;BME280;57641;51.416;5.506;2023-07-24T07:28:35;100473.09;;;22.62;64.21
70248;BME280;57641;51.416;5.506;2023-07-24T07:31:01;100470.09;;;22.76;64.19
70248;BME280;57641;51.416;5.506;2023-07-24T07:33:26;100468.81;;;22.78;64.00
70248;BME280;57641;51.416;5.506;2023-07-24T07:35:52;100467.56;;;22.86;63.91
70248;BME280;57641;51.416;5.506;2023-07-24T07:38:18;100464.53;;;22.82;64.10
70248;BME280;57641;51.416;5.506;2023-07-24T07:40:43;100462.13;;;22.86;64.07
70248;BME280;57641;51.416;5.506;2023-07-24T07:43:09;100464.09;;;22.73;63.46
70248;BME280;57641;51.416;5.506;2023-07-24T07:45:34;100463.41;;;22.55;63.72
70248;BME280;57641;51.416;5.506;2023-07-24T07:48:00;100464.13;;;22.90;63.98
70248;BME280;57641;51.416;5.506;2023-07-24T07:50:25;100465.59;;;22.81;63.53
70248;BME280;57641;51.416;5.506;2023-07-24T07:52:51;100462.13;;;22.86;63.44
70248;BME280;57641;51.416;5.506;2023-07-24T07:55:18;100462.19;;;23.02;63.46
70248;BME280;57641;51.416;5.506;2023-07-24T07:57:44;100465.91;;;22.85;62.77
70248;BME280;57641;51.416;5.506;2023-07-24T08:00:10;100473.69;;;22.93;62.81
70248;BME280;57641;51.416;5.506;2023-07-24T08:02:36;100466.22;;;22.71;63.52
70248;BME280;57641;51.416;5.506;2023-07-24T08:05:09;100469.47;;;22.85;63.48
70248;BME280;57641;51.416;5.506;2023-07-24T08:07:35;100467.75;;;22.96;63.16
70248;BME280;57641;51.416;5.506;2023-07-24T08:10:03;100468.81;;;22.95;62.35
70248;BME280;57641;51.416;5.506;2023-07-24T08:12:28;100461.16;;;22.92;62.45
70248;BME280;57641;51.416;5.506;2023-07-24T08:14:55;100456.06;;;22.95;62.80
70248;BME280;57641;51.416;5.506;2023-07-24T08:17:21;100446.00;;;22.96;62.45
70248;BME280;57641;51.416;5.506;2023-07-24T08:19:47;100450.41;;;23.13;61.96
70248;BME280;57641;51.416;5.506;2023-07-24T08:22:12;100456.44;;;23.15;62.29
70248;BME280;57641;51.416;5.506;2023-07-24T08:24:41;100453.47;;;23.34;63.41
70248;BME280;57641;51.416;5.506;2023-07-24T08:27:07;100455.47;;;23.38;61.81
70248;BME280;57641;51.416;5.506;2023-07-24T08:29:32;100458.16;;;23.22;62.40
70248;BME280;57641;51.416;5.506;2023-07-24T08:31:58;100447.69;;;23.13;61.79
70248;BME280;57641;51.416;5.506;2023-07-24T08:34:24;100449.16;;;23.49;61.61
70248;BME280;57641;51.416;5.506;2023-07-24T08:36:50;100454.44;;;23.56;61.36
70248;BME280;57641;51.416;5.506;2023-07-24T08:39:16;100460.69;;;23.73;62.29
70248;BME280;57641;51.416;5.506;2023-07-24T08:41:41;100464.94;;;23.86;60.96
70248;BME280;57641;51.416;5.506;2023-07-24T08:44:08;100451.47;;;23.96;60.96
70248;BME280;57641;51.416;5.506;2023-07-24T08:46:39;100447.78;;;23.85;59.97
70248;BME280;57641;51.416;5.506;2023-07-24T08:49:14;100453.69;;;23.61;59.89
70248;BME280;57641;51.416;5.506;2023-07-24T08:51:43;100454.09;;;23.52;59.81
70248;BME280;57641;51.416;5.506;2023-07-24T08:54:11;100446.72;;;23.36;59.96
70248;BME280;57641;51.416;5.506;2023-07-24T08:56:37;100450.00;;;23.38;60.30
70248;BME280;57641;51.416;5.506;2023-07-24T08:59:10;100444.84;;;23.53;60.34
70248;BME280;57641;51.416;5.506;2023-07-24T09:01:36;100434.28;;;23.24;62.11
70248;BME280;57641;51.416;5.506;2023-07-24T09:04:02;100437.75;;;23.36;60.33
70248;BME280;57641;51.416;5.506;2023-07-24T09:06:28;100437.19;;;23.67;60.50
70248;BME280;57641;51.416;5.506;2023-07-24T09:08:55;100437.25;;;23.72;59.34
70248;BME280;57641;51.416;5.506;2023-07-24T09:11:20;100428.72;;;23.85;60.22
70248;BME280;57641;51.416;5.506;2023-07-24T09:13:46;100424.69;;;23.88;60.66
70248;BME280;57641;51.416;5.506;2023-07-24T09:16:25;100415.97;;;24.08;59.93
70248;BME280;57641;51.416;5.506;2023-07-24T09:18:51;100419.00;;;24.11;58.65
70248;BME280;57641;51.416;5.506;2023-07-24T09:21:28;100408.56;;;24.03;58.11
70248;BME280;57641;51.416;5.506;2023-07-24T09:23:54;100403.47;;;24.12;58.26
70248;BME280;57641;51.416;5.506;2023-07-24T09:26:20;100393.25;;;24.19;56.76
70248;BME280;57641;51.416;5.506;2023-07-24T09:28:52;100391.25;;;24.31;56.09
70248;BME280;57641;51.416;5.506;2023-07-24T09:31:18;100386.72;;;24.42;58.53
70248;BME280;57641;51.416;5.506;2023-07-24T09:33:44;100386.41;;;24.65;57.40
70248;BME280;57641;51.416;5.506;2023-07-24T09:36:10;100376.28;;;24.60;56.48
70248;BME280;57641;51.416;5.506;2023-07-24T09:38:37;100378.41;;;24.53;55.78
70248;BME280;57641;51.416;5.506;2023-07-24T09:41:04;100365.59;;;24.27;55.98
70248;BME280;57641;51.416;5.506;2023-07-24T09:43:31;100367.31;;;24.38;56.73
70248;BME280;57641;51.416;5.506;2023-07-24T09:45:57;100354.81;;;24.37;55.93
70248;BME280;57641;51.416;5.506;2023-07-24T09:48:26;100356.22;;;24.01;55.37
70248;BME280;57641;51.416;5.506;2023-07-24T09:50:59;100347.53;;;24.21;56.68
70248;BME280;57641;51.416;5.506;2023-07-24T09:56:11;100354.31;;;24.18;57.13
70248;BME280;57641;51.416;5.506;2023-07-24T09:58:40;100356.19;;;24.18;57.30
70248;BME280;57641;51.416;5.506;2023-07-24T10:01:10;100353.22;;;24.19;59.10
70248;BME280;57641;51.416;5.506;2023-07-24T10:03:49;100364.94;;;24.20;58.05
70248;BME280;57641;51.416;5.506;2023-07-24T10:06:16;100372.22;;;24.14;58.08
70248;BME280;57641;51.416;5.506;2023-07-24T10:08:43;100373.28;;;24.13;57.44
70248;BME280;57641;51.416;5.506;2023-07-24T10:11:13;100376.25;;;24.12;57.31
70248;BME280;57641;51.416;5.506;2023-07-24T10:13:43;100377.78;;;24.03;57.62
70248;BME280;57641;51.416;5.506;2023-07-24T10:16:10;100384.63;;;23.67;57.64
70248;BME280;57641;51.416;5.506;2023-07-24T10:18:43;100380.16;;;23.77;57.54
70248;BME280;57641;51.416;5.506;2023-07-24T10:21:09;100381.63;;;23.85;57.76
70248;BME280;57641;51.416;5.506;2023-07-24T10:23:40;100400.53;;;23.75;58.20
70248;BME280;57641;51.416;5.506;2023-07-24T10:26:08;100398.97;;;23.79;58.74
70248;BME280;57641;51.416;5.506;2023-07-24T10:28:37;100397.25;;;23.73;58.61
70248;BME280;57641;51.416;5.506;2023-07-24T10:31:19;100377.75;;;23.81;58.97
70248;BME280;57641;51.416;5.506;2023-07-24T10:33:46;100378.97;;;23.68;58.56
70248;BME280;57641;51.416;5.506;2023-07-24T10:36:12;100389.91;;;23.73;58.89
70248;BME280;57641;51.416;5.506;2023-07-24T10:38:41;100381.00;;;23.78;60.16
70248;BME280;57641;51.416;5.506;2023-07-24T10:41:08;100397.63;;;23.81;60.68
70248;BME280;57641;51.416;5.506;2023-07-24T10:43:45;100409.34;;;23.82;60.73
70248;BME280;57641;51.416;5.506;2023-07-24T10:46:12;100416.22;;;23.84;61.83
70248;BME280;57641;51.416;5.506;2023-07-24T10:48:43;100419.50;;;23.86;60.61
70248;BME280;57641;51.416;5.506;2023-07-24T10:51:10;100421.72;;;23.89;60.21
70248;BME280;57641;51.416;5.506;2023-07-24T10:53:37;100409.44;;;23.87;59.36
70248;BME280;57641;51.416;5.506;2023-07-24T10:56:06;100391.56;;;23.96;58.64
70248;BME280;57641;51.416;5.506;2023-07-24T10:58:33;100387.00;;;24.02;59.17
70248;BME280;57641;51.416;5.506;2023-07-24T11:01:06;100392.09;;;24.15;59.29
70248;BME280;57641;51.416;5.506;2023-07-24T11:03:32;100384.94;;;24.09;58.61
70248;BME280;57641;51.416;5.506;2023-07-24T11:06:01;100390.50;;;23.97;58.20
70248;BME280;57641;51.416;5.506;2023-07-24T11:08:27;100395.91;;;24.14;57.87
70248;BME280;57641;51.416;5.506;2023-07-24T11:10:57;100396.41;;;24.11;57.98
70248;BME280;57641;51.416;5.506;2023-07-24T11:13:27;100407.97;;;24.18;57.69
70248;BME280;57641;51.416;5.506;2023-07-24T11:15:54;100412.47;;;24.12;55.86
70248;BME280;57641;51.416;5.506;2023-07-24T11:18:20;100404.81;;;24.26;56.20
70248;BME280;57641;51.416;5.506;2023-07-24T11:20:52;100401.94;;;24.16;55.67
70248;BME280;57641;51.416;5.506;2023-07-24T11:23:18;100399.03;;;24.22;56.01
70248;BME280;57641;51.416;5.506;2023-07-24T11:25:45;100404.91;;;24.14;55.42
70248;BME280;57641;51.416;5.506;2023-07-24T11:28:12;100412.63;;;24.22;56.43
70248;BME280;57641;51.416;5.506;2023-07-24T11:30:39;100421.88;;;23.99;56.85
70248;BME280;57641;51.416;5.506;2023-07-24T11:33:07;100414.06;;;24.08;56.81
70248;BME280;57641;51.416;5.506;2023-07-24T11:35:34;100418.28;;;23.61;56.66
70248;BME280;57641;51.416;5.506;2023-07-24T11:38:01;100425.34;;;23.95;58.20
70248;BME280;57641;51.416;5.506;2023-07-24T11:43:02;100424.25;;;23.96;58.80
70248;BME280;57641;51.416;5.506;2023-07-24T11:45:29;100428.59;;;23.75;58.41
70248;BME280;57641;51.416;5.506;2023-07-24T11:47:54;100442.38;;;23.69;60.19
70248;BME280;57641;51.416;5.506;2023-07-24T11:50:23;100432.16;;;23.59;59.59
70248;BME280;57641;51.416;5.506;2023-07-24T11:52:51;100421.53;;;23.58;60.51
70248;BME280;57641;51.416;5.506;2023-07-24T11:55:31;100420.41;;;23.75;61.15
70248;BME280;57641;51.416;5.506;2023-07-24T11:57:58;100418.97;;;23.68;61.02
70248;BME280;57641;51.416;5.506;2023-07-24T12:00:25;100404.66;;;23.77;61.02
70248;BME280;57641;51.416;5.506;2023-07-24T12:02:51;100401.91;;;23.94;61.10
70248;BME280;57641;51.416;5.506;2023-07-24T12:05:17;100400.16;;;24.05;62.29
70248;BME280;57641;51.416;5.506;2023-07-24T12:07:44;100391.69;;;24.06;62.18
70248;BME280;57641;51.416;5.506;2023-07-24T12:10:12;100390.91;;;24.06;60.19
70248;BME280;57641;51.416;5.506;2023-07-24T12:12:39;100397.56;;;24.15;60.45
70248;BME280;57641;51.416;5.506;2023-07-24T12:15:06;100385.38;;;24.00;58.96
70248;BME280;57641;51.416;5.506;2023-07-24T12:17:32;100371.31;;;24.09;59.55
70248;BME280;57641;51.416;5.506;2023-07-24T12:19:57;100375.44;;;23.89;58.70
70248;BME280;57641;51.416;5.506;2023-07-24T12:22:22;100379.53;;;23.92;57.59
70248;BME280;57641;51.416;5.506;2023-07-24T12:24:48;100375.22;;;23.96;57.26
70248;BME280;57641;51.416;5.506;2023-07-24T12:27:13;100376.47;;;24.05;58.25
70248;BME280;57641;51.416;5.506;2023-07-24T12:29:39;100378.81;;;24.18;57.22
70248;BME280;57641;51.416;5.506;2023-07-24T12:32:04;100373.59;;;24.17;57.27
70248;BME280;57641;51.416;5.506;2023-07-24T12:34:30;100377.56;;;23.87;58.94
70248;BME280;57641;51.416;5.506;2023-07-24T12:36:56;100378.97;;;24.12;60.28
70248;BME280;57641;51.416;5.506;2023-07-24T12:39:21;100383.06;;;23.71;58.15
70248;BME280;57641;51.416;5.506;2023-07-24T12:41:47;100384.19;;;23.75;58.07
70248;BME280;57641;51.416;5.506;2023-07-24T12:44:13;100386.50;;;23.83;57.80
70248;BME280;57641;51.416;5.506;2023-07-24T12:46:39;100385.75;;;23.87;59.07
70248;BME280;57641;51.416;5.506;2023-07-24T12:49:05;100389.69;;;24.40;58.48
70248;BME280;57641;51.416;5.506;2023-07-24T12:51:31;100389.66;;;24.35;59.47